createdAt,value
2022-12-07T00:02:25.241Z,15.73
2022-12-07T00:05:28.368Z,14.80
2022-12-07T00:08:32.770Z,14.13
2022-12-07T00:11:37.261Z,15.20
2022-12-07T00:14:41.551Z,13.80
2022-12-07T00:17:44.692Z,13.67
2022-12-07T00:20:47.738Z,14.10
2022-12-07T00:23:53.528Z,13.40
2022-12-07T00:26:56.598Z,13.93
2022-12-07T00:30:01.336Z,14.23
2022-12-07T00:33:04.754Z,13.17
2022-12-07T00:36:11.372Z,12.57
2022-12-07T00:39:14.921Z,13.37
2022-12-07T00:42:17.891Z,13.27
2022-12-07T00:45:22.424Z,12.27
2022-12-07T00:48:26.212Z,11.70
2022-12-07T00:51:29.193Z,12.30
2022-12-07T00:54:34.977Z,12.30
2022-12-07T00:57:37.922Z,12.57
2022-12-07T01:00:44.879Z,13.27
2022-12-07T01:03:47.887Z,11.80
2022-12-07T01:06:50.892Z,11.67
2022-12-07T01:09:53.982Z,11.80
2022-12-07T01:12:57.215Z,11.67
2022-12-07T01:16:05.221Z,11.87
2022-12-07T01:19:08.266Z,11.43
2022-12-07T01:22:11.334Z,12.50
2022-12-07T01:25:14.487Z,11.67
2022-12-07T01:28:17.819Z,11.90
2022-12-07T01:31:24.995Z,11.03
2022-12-07T01:34:28.057Z,12.13
2022-12-07T01:37:37.627Z,11.40
2022-12-07T01:40:40.602Z,11.57
2022-12-07T01:44:22.725Z,10.20
2022-12-07T01:47:27.021Z,12.00
2022-12-07T01:50:32.871Z,11.33
2022-12-07T01:53:38.326Z,10.53
2022-12-07T01:56:44.978Z,9.83
2022-12-07T01:59:50.994Z,9.10
2022-12-07T02:02:59.515Z,9.13
2022-12-07T02:06:02.732Z,9.50
2022-12-07T02:09:06.961Z,8.60
2022-12-07T02:12:10.005Z,8.13
2022-12-07T02:15:14.668Z,8.50
2022-12-07T02:18:28.509Z,8.63
2022-12-07T02:21:41.597Z,8.03
2022-12-07T02:24:56.619Z,8.47
2022-12-07T02:28:08.597Z,8.57
2022-12-07T02:31:19.751Z,8.17
2022-12-07T02:34:36.628Z,9.10
2022-12-07T02:37:45.278Z,8.37
2022-12-07T02:40:57.518Z,8.50
2022-12-07T02:44:04.719Z,8.37
2022-12-07T02:47:13.190Z,9.27
2022-12-07T02:50:16.541Z,9.03
2022-12-07T02:53:38.703Z,8.97
2022-12-07T02:56:50.295Z,8.80
2022-12-07T03:00:05.739Z,9.23
2022-12-07T03:03:14.932Z,9.43
2022-12-07T03:06:29.347Z,9.37
2022-12-07T03:09:40.099Z,9.40
2022-12-07T03:12:50.832Z,9.77
2022-12-07T03:16:00.726Z,10.00
2022-12-07T03:19:11.559Z,8.90
2022-12-07T03:22:16.133Z,9.60
2022-12-07T03:25:22.587Z,9.87
2022-12-07T03:28:29.033Z,9.67
2022-12-07T03:31:35.819Z,9.87
2022-12-07T03:34:47.669Z,9.43
2022-12-07T03:37:57.252Z,10.07
2022-12-07T03:41:07.054Z,9.97
2022-12-07T03:44:10.774Z,10.83
2022-12-07T03:47:18.317Z,9.80
2022-12-07T03:50:31.231Z,10.77
2022-12-07T03:53:39.432Z,10.70
2022-12-07T03:56:44.418Z,11.00
2022-12-07T03:59:48.642Z,10.63
2022-12-07T04:02:54.795Z,11.33
2022-12-07T04:05:59.819Z,12.20
2022-12-07T04:09:02.822Z,12.07
2022-12-07T04:12:06.954Z,11.73
2022-12-07T04:15:11.819Z,12.57
2022-12-07T04:18:14.997Z,13.23
2022-12-07T04:21:21.042Z,14.30
2022-12-07T04:24:24.720Z,13.20
2022-12-07T04:27:28.371Z,15.23
2022-12-07T04:30:31.328Z,15.47
2022-12-07T04:33:34.301Z,15.47
2022-12-07T04:36:39.303Z,15.10
2022-12-07T04:39:42.680Z,15.17
2022-12-07T04:42:47.614Z,16.60
2022-12-07T04:45:51.608Z,17.30
2022-12-07T04:48:56.195Z,16.37
2022-12-07T04:52:00.590Z,15.50
2022-12-07T04:55:03.612Z,17.10
2022-12-07T04:58:06.630Z,18.20
2022-12-07T05:01:10.011Z,19.60
2022-12-07T05:04:14.546Z,17.90
2022-12-07T05:07:19.551Z,20.60
2022-12-07T05:10:26.937Z,19.77
2022-12-07T05:13:29.995Z,19.63
2022-12-07T05:16:33.470Z,18.47
2022-12-07T05:19:39.684Z,19.37
2022-12-07T05:22:44.118Z,20.47
2022-12-07T05:25:47.443Z,18.23
2022-12-07T05:28:53.346Z,19.93
2022-12-07T05:31:56.334Z,19.53
2022-12-07T05:34:59.305Z,21.27
2022-12-07T05:38:03.798Z,20.03
2022-12-07T05:41:08.800Z,20.17
2022-12-07T05:44:12.109Z,20.03
2022-12-07T05:47:18.210Z,21.57
2022-12-07T05:50:21.386Z,22.00
2022-12-07T05:53:38.115Z,20.90
2022-12-07T05:56:41.506Z,24.03
2022-12-07T05:59:44.455Z,22.90
2022-12-07T06:02:47.816Z,22.57
2022-12-07T06:05:51.579Z,23.43
2022-12-07T06:08:56.022Z,23.47
2022-12-07T06:12:19.553Z,25.27
2022-12-07T06:15:26.896Z,22.93
2022-12-07T06:18:29.945Z,22.53
2022-12-07T06:21:45.058Z,24.17
2022-12-07T06:24:49.352Z,23.10
2022-12-07T06:27:52.320Z,24.50
2022-12-07T06:31:00.191Z,23.47
2022-12-07T06:34:05.397Z,23.67
2022-12-07T06:37:08.559Z,24.00
2022-12-07T06:40:13.945Z,22.27
2022-12-07T06:43:17.043Z,22.90
2022-12-07T06:46:20.796Z,23.43
2022-12-07T06:49:23.774Z,22.00
2022-12-07T06:52:26.735Z,22.57
2022-12-07T06:55:31.194Z,22.47
2022-12-07T06:58:35.650Z,23.27
2022-12-07T07:01:39.107Z,23.30
2022-12-07T07:04:42.148Z,21.90
2022-12-07T07:08:05.313Z,22.63
2022-12-07T07:11:11.065Z,22.47
2022-12-07T07:14:17.050Z,24.57
2022-12-07T07:17:20.238Z,24.40
2022-12-07T07:20:26.341Z,25.73
2022-12-07T07:23:29.382Z,25.07
2022-12-07T07:26:33.685Z,25.53
2022-12-07T07:29:39.523Z,26.87
2022-12-07T07:32:42.733Z,24.43
2022-12-07T07:35:46.040Z,26.30
2022-12-07T07:38:49.049Z,24.30
2022-12-07T07:41:53.328Z,23.40
2022-12-07T07:45:02.242Z,23.10
2022-12-07T07:48:05.798Z,20.17
2022-12-07T07:51:34.200Z,19.73
2022-12-07T07:54:39.308Z,18.23
2022-12-07T07:57:44.704Z,16.87
2022-12-07T08:00:50.296Z,17.97
2022-12-07T08:03:53.382Z,17.77
2022-12-07T08:06:56.361Z,15.67
2022-12-07T08:10:01.151Z,16.17
2022-12-07T08:13:17.172Z,16.17
2022-12-07T08:16:23.368Z,15.77
2022-12-07T08:19:26.637Z,17.07
2022-12-07T08:22:29.937Z,15.37
2022-12-07T08:25:34.288Z,14.47
2022-12-07T08:28:39.398Z,13.53
2022-12-07T08:31:42.395Z,12.43
2022-12-07T08:34:45.613Z,11.97
2022-12-07T08:37:48.593Z,12.90
2022-12-07T08:40:56.718Z,11.07
2022-12-07T08:44:04.559Z,10.63
2022-12-07T08:47:08.734Z,9.83
2022-12-07T08:50:13.494Z,9.63
2022-12-07T08:53:16.550Z,10.73
2022-12-07T08:56:22.370Z,8.10
2022-12-07T08:59:27.569Z,7.63
2022-12-07T09:02:34.205Z,7.17
2022-12-07T09:05:39.449Z,6.77
2022-12-07T09:08:51.762Z,7.67
2022-12-07T09:11:54.774Z,6.43
2022-12-07T09:14:59.229Z,6.57
2022-12-07T09:18:02.635Z,6.70
2022-12-07T09:21:06.005Z,6.07
2022-12-07T09:24:10.231Z,5.00
2022-12-07T09:27:13.272Z,5.10
2022-12-07T09:30:17.898Z,4.60
2022-12-07T09:33:23.231Z,4.73
2022-12-07T09:36:27.437Z,6.00
2022-12-07T09:39:30.580Z,6.90
2022-12-07T09:42:40.418Z,6.17
2022-12-07T09:45:49.192Z,6.57
2022-12-07T09:48:53.350Z,6.00
2022-12-07T09:52:16.091Z,6.60
2022-12-07T09:55:27.173Z,6.77
2022-12-07T09:58:32.055Z,5.93
2022-12-07T10:01:40.240Z,5.70
2022-12-07T10:04:45.192Z,6.27
2022-12-07T10:07:48.270Z,5.93
2022-12-07T10:10:54.628Z,8.10
2022-12-07T10:14:13.195Z,7.13
2022-12-07T10:17:35.289Z,6.10
2022-12-07T10:20:41.277Z,7.93
2022-12-07T10:24:01.250Z,7.07
2022-12-07T10:27:06.650Z,6.50
2022-12-07T10:30:16.698Z,6.70
2022-12-07T10:33:39.948Z,7.30
2022-12-07T10:36:42.952Z,5.53
2022-12-07T10:39:48.612Z,6.03
2022-12-07T10:43:05.905Z,6.17
2022-12-07T10:46:53.834Z,7.57
2022-12-07T10:50:26.175Z,8.07
2022-12-07T10:53:59.211Z,7.27
2022-12-07T10:57:26.118Z,8.97
2022-12-07T11:00:37.721Z,10.17
2022-12-07T11:04:02.075Z,5.80
2022-12-07T11:07:15.084Z,7.07
2022-12-07T11:11:32.869Z,6.70
2022-12-07T11:14:45.724Z,7.37
2022-12-07T11:18:02.546Z,7.10
2022-12-07T11:21:15.497Z,8.47
2022-12-07T11:24:24.367Z,7.43
2022-12-07T11:27:38.824Z,6.80
2022-12-07T11:30:51.407Z,8.97
2022-12-07T11:34:01.262Z,7.57
2022-12-07T11:37:13.647Z,9.63
2022-12-07T11:40:28.954Z,8.90
2022-12-07T11:43:42.592Z,7.00
2022-12-07T11:46:55.046Z,7.33
2022-12-07T11:50:18.051Z,8.73
2022-12-07T11:53:27.701Z,8.47
2022-12-07T11:56:42.164Z,9.43
2022-12-07T11:59:52.598Z,9.87
2022-12-07T12:03:03.653Z,8.47
2022-12-07T12:06:08.393Z,9.67
2022-12-07T12:17:08.056Z,10.27
2022-12-07T12:20:27.286Z,8.43
2022-12-07T12:23:44.544Z,8.33
2022-12-07T12:27:02.201Z,7.43
2022-12-07T12:30:40.422Z,7.93
2022-12-07T12:33:51.292Z,7.13
2022-12-07T12:43:14.081Z,6.07
2022-12-07T12:50:37.799Z,5.97
2022-12-07T12:54:16.763Z,4.93
2022-12-07T12:57:34.659Z,5.73
2022-12-07T13:01:46.880Z,5.97
2022-12-07T13:05:11.499Z,6.57
2022-12-07T13:08:43.575Z,5.87
2022-12-07T13:12:46.771Z,7.73
2022-12-07T13:25:57.031Z,5.10
2022-12-07T13:29:44.434Z,5.50
2022-12-07T13:33:12.448Z,5.90
2022-12-07T13:37:28.207Z,6.27
2022-12-07T13:40:49.858Z,5.87
2022-12-07T13:44:04.094Z,5.77
2022-12-07T13:47:17.040Z,7.30
2022-12-07T13:50:42.007Z,6.87
2022-12-07T13:53:54.093Z,5.80
2022-12-07T13:57:13.263Z,4.93
2022-12-07T14:00:52.405Z,6.33
2022-12-07T14:04:22.728Z,5.80
2022-12-07T14:07:29.598Z,4.50
2022-12-07T14:10:39.154Z,4.87
2022-12-07T14:13:54.140Z,4.93
2022-12-07T14:17:25.474Z,5.30
2022-12-07T14:20:36.169Z,5.07
2022-12-07T14:23:41.378Z,4.77
2022-12-07T14:28:13.695Z,5.50
2022-12-07T14:32:21.320Z,5.43
2022-12-07T14:45:53.880Z,6.93
2022-12-07T14:54:26.321Z,5.97
2022-12-07T14:58:05.778Z,5.63
2022-12-07T15:01:49.648Z,5.93
2022-12-07T15:05:33.133Z,5.80
2022-12-07T15:09:02.481Z,5.33
2022-12-07T15:12:09.134Z,4.97
2022-12-07T15:15:15.605Z,5.93
2022-12-07T15:19:26.392Z,5.60
2022-12-07T15:23:16.264Z,5.57
2022-12-07T15:26:59.847Z,5.30
2022-12-07T15:30:58.020Z,5.37
2022-12-07T15:34:40.583Z,5.10
2022-12-07T15:39:05.062Z,5.37
2022-12-07T15:42:23.615Z,5.87
2022-12-07T15:46:22.554Z,5.17
2022-12-07T15:54:43.175Z,5.70
2022-12-07T15:59:32.180Z,5.77
2022-12-07T16:02:39.523Z,5.40
2022-12-07T16:06:06.522Z,5.23
2022-12-07T16:09:30.198Z,5.60
2022-12-07T16:13:35.910Z,5.80
2022-12-07T16:17:26.504Z,5.90
2022-12-07T16:25:08.204Z,6.53
2022-12-07T16:29:13.583Z,5.60
2022-12-07T16:33:38.667Z,4.80
2022-12-07T16:40:11.024Z,6.30
2022-12-07T16:43:15.928Z,5.83
2022-12-07T16:46:19.430Z,5.60
2022-12-07T16:49:22.575Z,7.50
2022-12-07T16:52:25.544Z,6.73
2022-12-07T16:55:30.144Z,5.03
2022-12-07T16:58:33.934Z,6.27
2022-12-07T17:01:37.302Z,6.40
2022-12-07T17:04:43.292Z,6.13
2022-12-07T17:07:46.253Z,5.57
2022-12-07T17:10:50.636Z,7.47
2022-12-07T17:14:12.201Z,6.27
2022-12-07T17:17:15.185Z,6.50
2022-12-07T17:20:18.631Z,6.10
2022-12-07T17:23:22.515Z,5.60
2022-12-07T17:26:34.895Z,6.50
2022-12-07T17:29:39.047Z,6.60
2022-12-07T17:32:42.181Z,5.97
2022-12-07T17:35:45.154Z,6.67
2022-12-07T17:38:51.885Z,6.77
2022-12-07T17:42:13.913Z,7.00
2022-12-07T17:45:16.955Z,6.70
2022-12-07T17:48:20.676Z,7.00
2022-12-07T17:51:41.058Z,6.23
2022-12-07T17:54:44.857Z,7.33
2022-12-07T17:57:49.111Z,7.73
2022-12-07T18:00:52.186Z,7.53
2022-12-07T18:03:55.184Z,6.27
2022-12-07T18:06:58.507Z,6.20
2022-12-07T18:10:01.559Z,6.53
2022-12-07T18:13:26.968Z,6.40
2022-12-07T18:16:32.891Z,6.27
2022-12-07T18:19:37.189Z,6.00
2022-12-07T18:22:40.385Z,7.50
2022-12-07T18:25:49.214Z,6.70
2022-12-07T18:28:54.638Z,7.10
2022-12-07T18:31:57.655Z,7.70
2022-12-07T18:35:04.278Z,5.87
2022-12-07T18:38:09.623Z,6.73
2022-12-07T18:41:15.137Z,7.37
2022-12-07T18:44:19.870Z,7.37
2022-12-07T18:47:23.233Z,7.77
2022-12-07T18:50:26.182Z,7.13
2022-12-07T18:53:32.075Z,7.23
2022-12-07T18:56:35.149Z,7.00
2022-12-07T18:59:47.113Z,7.27
2022-12-07T19:02:50.710Z,7.43
2022-12-07T19:05:56.345Z,6.57
2022-12-07T19:08:59.442Z,7.40
2022-12-07T19:12:05.347Z,7.67
2022-12-07T19:15:12.927Z,7.03
2022-12-07T19:18:15.885Z,6.33
2022-12-07T19:21:19.031Z,6.70
2022-12-07T19:24:23.881Z,7.20
2022-12-07T19:27:27.970Z,6.63
2022-12-07T19:30:32.254Z,6.70
2022-12-07T19:33:35.336Z,6.67
2022-12-07T19:36:38.322Z,7.90
2022-12-07T19:39:43.629Z,7.20
2022-12-07T19:42:46.571Z,7.13
2022-12-07T19:45:50.974Z,8.47
2022-12-07T19:48:53.968Z,7.47
2022-12-07T19:51:58.463Z,8.03
2022-12-07T19:55:02.577Z,6.77
2022-12-07T19:58:05.710Z,7.10
2022-12-07T20:01:10.164Z,7.40
2022-12-07T20:04:17.114Z,7.73
2022-12-07T20:07:20.110Z,8.93
2022-12-07T20:10:26.334Z,7.43
2022-12-07T20:13:28.681Z,8.57
2022-12-07T20:16:33.093Z,8.37
2022-12-07T20:19:37.102Z,7.80
2022-12-07T20:22:40.376Z,7.27
2022-12-07T20:25:43.310Z,9.60
2022-12-07T20:28:46.885Z,8.70
2022-12-07T20:31:53.452Z,7.37
2022-12-07T20:34:56.420Z,7.23
2022-12-07T20:37:59.359Z,9.73
2022-12-07T20:41:05.087Z,8.93
2022-12-07T20:44:08.085Z,8.93
2022-12-07T20:47:12.442Z,9.30
2022-12-07T20:50:15.839Z,8.57
2022-12-07T20:53:19.372Z,9.73
2022-12-07T20:56:25.087Z,8.27
2022-12-07T20:59:28.370Z,7.70
2022-12-07T21:02:33.017Z,8.10
2022-12-07T21:05:36.362Z,9.43
2022-12-07T21:08:39.783Z,8.60
2022-12-07T21:11:42.723Z,8.07
2022-12-07T21:14:45.729Z,8.77
2022-12-07T21:17:50.014Z,8.97
2022-12-07T21:20:53.017Z,9.87
2022-12-07T21:24:01.690Z,8.60
2022-12-07T21:27:07.708Z,8.23
2022-12-07T21:30:11.638Z,8.03
2022-12-07T21:33:15.979Z,8.20
2022-12-07T21:36:20.861Z,9.87
2022-12-07T21:39:23.917Z,10.33
2022-12-07T21:42:27.495Z,9.70
2022-12-07T21:45:30.492Z,9.50
2022-12-07T21:48:37.591Z,9.17
2022-12-07T21:51:42.924Z,8.70
2022-12-07T21:54:45.930Z,9.00
2022-12-07T21:57:48.937Z,8.47
2022-12-07T22:00:52.164Z,8.50
2022-12-07T22:03:57.169Z,8.33
2022-12-07T22:07:01.639Z,8.37
2022-12-07T22:10:05.920Z,9.50
2022-12-07T22:13:10.798Z,9.30
2022-12-07T22:16:13.035Z,8.20
2022-12-07T22:19:17.528Z,9.27
2022-12-07T22:22:20.674Z,9.93
2022-12-07T22:25:26.257Z,9.93
2022-12-07T22:28:29.219Z,8.83
2022-12-07T22:31:32.710Z,9.40
2022-12-07T22:34:37.138Z,9.33
2022-12-07T22:37:40.461Z,9.47
2022-12-07T22:40:43.571Z,9.53
2022-12-07T22:43:50.425Z,9.40
2022-12-07T22:46:53.429Z,9.63
2022-12-07T22:49:57.781Z,10.57
2022-12-07T22:53:00.920Z,9.20
2022-12-07T22:56:03.990Z,9.03
2022-12-07T22:59:08.200Z,8.30
2022-12-07T23:02:12.322Z,10.00
2022-12-07T23:05:16.605Z,8.80
2022-12-07T23:08:20.034Z,8.73
2022-12-07T23:11:43.608Z,9.13
2022-12-07T23:14:46.832Z,8.33
2022-12-07T23:17:49.776Z,9.23
2022-12-07T23:20:58.175Z,8.70
2022-12-07T23:24:01.274Z,9.27
2022-12-07T23:27:04.297Z,8.60
2022-12-07T23:30:09.081Z,8.90
2022-12-07T23:33:12.476Z,8.83
2022-12-07T23:36:20.566Z,8.70
2022-12-07T23:39:23.503Z,10.07
2022-12-07T23:42:26.613Z,8.97
2022-12-07T23:45:29.741Z,9.53
2022-12-07T23:48:32.685Z,9.60
2022-12-07T23:51:37.310Z,10.03
2022-12-07T23:54:40.295Z,9.57
2022-12-07T23:57:43.242Z,9.50
